Data for 06/06/2018

Time Sea-Level Adjusted Pressure Absolute Pressure Temperature Relative Humidity Dew Point   
(mb) (inHg) (mb) (inHg) (C) (F) (%) (C) (F)
00:05 1017 30.03 847 25.01 15 59.1 75 10.7 51.3
00:10 1017 30.03 847 25.01 15.1 59.2 75 10.8 51.5
00:15 1017 30.03 846 24.98 15.1 59.1 75 10.8 51.4
00:20 1017 30.03 847 25.01 15.1 59.1 76 10.8 51.4
00:25 1017 30.03 847 25.01 15 59.1 76 10.8 51.4
00:30 1017 30.03 847 25.01 15 59.1 76 10.8 51.5
00:35 1017 30.03 847 25.01 15 58.9 76 10.8 51.4
00:40 1018 30.06 847 25.01 14.9 58.8 77 10.8 51.5
00:45 1018 30.06 847 25.01 14.7 58.4 77 10.8 51.4
00:50 1018 30.06 847 25.01 14.6 58.3 78 10.8 51.5
00:55 1018 30.06 847 25.01 14.5 58.2 78 10.7 51.3
01:00 1018 30.06 847 25.01 14.5 58.1 78 10.7 51.3
01:05 1018 30.06 847 25.01 14.4 58 78 10.7 51.2
01:10 1018 30.06 847 25.01 14.4 57.8 78 10.5 51
01:15 1018 30.06 847 25.01 14.3 57.7 78 10.5 50.8
01:20 1018 30.06 847 25.01 14.2 57.6 77 10.3 50.6
01:25 1018 30.06 847 25.01 14.2 57.5 77 10.2 50.4
01:30 1018 30.06 847 25.01 14.1 57.4 77 10.1 50.1
01:35 1018 30.06 847 25.01 14.1 57.3 77 10 50.1
01:40 1018 30.06 847 25.01 14 57.2 77 10 50
01:45 1018 30.06 847 25.01 13.9 57.1 77 9.9 49.9
01:50 1018 30.06 847 25.01 14 57.1 76 9.9 49.8
01:55 1018 30.06 847 25.01 13.9 57.1 76 9.8 49.7
02:00 1018 30.06 847 25.01 13.9 57 76 9.9 49.7
02:05 1018 30.06 847 25.01 13.8 56.8 76 9.7 49.5
02:10 1018 30.06 847 25.01 13.7 56.6 77 9.7 49.4
02:15 1018 30.06 847 25.01 13.5 56.4 77 9.6 49.2
02:20 1018 30.06 847 25.01 13.4 56.2 77 9.6 49.2
02:25 1018 30.06 847 25.01 13.3 56 77 9.4 49
02:30 1018 30.06 847 25.01 13.3 55.9 77 9.4 48.9
02:35 1018 30.06 847 25.01 13.2 55.7 78 9.4 48.9
02:40 1018 30.06 847 25.01 13.1 55.5 78 9.4 48.9
02:45 1018 30.06 847 25.01 12.9 55.3 79 9.3 48.8
02:50 1018 30.06 847 25.01 12.9 55.2 79 9.4 48.9
02:55 1018 30.06 847 25.01 12.7 54.9 79 9.3 48.7
03:00 1018 30.06 847 25.01 12.6 54.8 80 9.3 48.8
03:05 1018 30.06 847 25.01 12.5 54.5 80 9.3 48.7
03:10 1018 30.06 847 25.01 12.6 54.6 80 9.2 48.6
03:15 1018 30.06 847 25.01 12.6 54.7 80 9.3 48.7
03:20 1018 30.06 847 25.01 12.6 54.6 80 9.3 48.7
03:25 1018 30.06 847 25.01 12.6 54.7 80 9.3 48.7
03:30 1018 30.06 847 25.01 12.6 54.6 80 9.2 48.5
03:35 1018 30.06 847 25.01 12.7 54.8 79 9.2 48.6
03:40 1018 30.06 847 25.01 12.5 54.5 80 9.1 48.4
03:45 1018 30.06 847 25.01 12.5 54.5 79 9 48.1
03:50 1018 30.06 847 25.01 12.5 54.5 79 9 48.2
03:55 1018 30.06 847 25.01 12.5 54.6 79 9 48.1
04:00 1018 30.06 847 25.01 12.4 54.4 79 9 48.1
04:05 1018 30.06 847 25.01 12.3 54.2 79 8.9 47.9
04:10 1018 30.06 847 25.01 12.3 54.1 79 8.8 47.9
04:15 1018 30.06 848 25.04 12.1 53.8 80 8.8 47.9
04:20 1018 30.06 848 25.04 12 53.6 80 8.7 47.7
04:25 1018 30.06 848 25.04 12.1 53.8 80 8.8 47.8
04:30 1018 30.06 848 25.04 12.1 53.8 80 8.7 47.7
04:35 1018 30.06 848 25.04 12 53.5 80 8.6 47.5
04:40 1018 30.06 848 25.04 11.9 53.3 80 8.5 47.3
04:45 1018 30.06 847 25.01 11.9 53.4 80 8.5 47.2
04:50 1018 30.06 847 25.01 11.7 53 80 8.3 46.9
04:55 1018 30.06 847 25.01 11.4 52.4 80 8 46.5
05:00 1018 30.06 847 25.01 11 51.8 80 7.7 45.9
05:05 1018 30.06 847 25.01 10.8 51.4 79 7.4 45.2
05:10 1018 30.06 847 25.01 10.6 51.1 80 7.2 45
05:15 1018 30.06 847 25.01 10.6 51 80 7.3 45.1
05:20 1018 30.06 847 25.01 10.7 51.2 80 7.3 45.1
05:25 1018 30.06 847 25.01 11 51.7 82 7.9 46.3
05:30 1018 30.06 847 25.01 11.3 52.4 79 7.9 46.2
05:35 1018 30.06 847 25.01 11.4 52.5 80 8.1 46.6
05:40 1018 30.06 848 25.04 11.4 52.6 80 8 46.5
05:45 1018 30.06 848 25.04 11.3 52.4 79 7.8 46.1
05:50 1018 30.06 848 25.04 11.3 52.3 79 7.7 45.9
05:55 1018 30.06 848 25.04 11.3 52.4 79 7.7 45.9
06:00 1018 30.06 848 25.04 11.6 52.9 78 8 46.4
06:05 1018 30.06 848 25.04 11.7 53 79 8.1 46.6
06:10 1018 30.06 848 25.04 11.7 53.1 79 8.2 46.7
06:15 1018 30.06 848 25.04 11.9 53.4 78 8.3 46.9
06:20 1019 30.09 848 25.04 12 53.5 78 8.3 47
06:25 1019 30.09 848 25.04 12 53.6 79 8.4 47.2
06:30 1019 30.09 848 25.04 12 53.6 78 8.4 47
06:35 1019 30.09 848 25.04 12.1 53.7 76 8.1 46.5
06:40 1019 30.09 848 25.04 12.1 53.9 75 8 46.3
06:45 1019 30.09 848 25.04 12.3 54.1 76 8.2 46.8
06:50 1019 30.09 848 25.04 12.2 53.9 76 8.2 46.7
06:55 1019 30.09 848 25.04 12.3 54.2 76 8.2 46.7
07:00 1019 30.09 848 25.04 12.4 54.4 76 8.4 47.1
07:05 1019 30.09 848 25.04 12.5 54.4 75 8.1 46.6
07:10 1019 30.09 848 25.04 12.6 54.7 75 8.4 47.1
07:15 1019 30.09 848 25.04 12.8 55 74 8.3 47
07:20 1019 30.09 848 25.04 12.8 55 74 8.3 47
07:25 1019 30.09 848 25.04 12.8 55 75 8.6 47.4
07:30 1019 30.09 848 25.04 12.8 55.1 77 8.9 48.1
07:35 1019 30.09 848 25.04 12.8 55.1 78 9.1 48.3
07:40 1019 30.09 848 25.04 12.8 55.1 78 9.1 48.3
07:45 1019 30.09 848 25.04 12.9 55.1 78 9.1 48.4
07:50 1019 30.09 848 25.04 12.9 55.2 78 9.1 48.5
07:55 1019 30.09 848 25.04 13 55.3 78 9.2 48.6
08:00 1019 30.09 848 25.04 13 55.4 77 9.1 48.3
08:05 1019 30.09 848 25.04 13 55.4 78 9.2 48.6
08:10 1019 30.09 848 25.04 13 55.3 78 9.2 48.6
08:15 1019 30.09 848 25.04 13.1 55.5 77 9.2 48.6
08:20 1019 30.09 848 25.04 13.4 56.1 76 9.3 48.7
08:25 1019 30.09 848 25.04 13.4 56.2 76 9.3 48.8
08:30 1019 30.09 848 25.04 13.5 56.4 75 9.3 48.8
08:35 1019 30.09 848 25.04 14 57.1 74 9.4 48.9
08:40 1019 30.09 848 25.04 14.2 57.5 74 9.6 49.2
08:45 1019 30.09 848 25.04 14.5 58.2 73 9.7 49.5
08:50 1019 30.09 848 25.04 14.9 58.9 69 9.4 48.8
08:55 1019 30.09 848 25.04 15.6 60.2 65 9.2 48.6
09:00 1019 30.09 848 25.04 16 60.8 65 9.5 49.2
09:05 1019 30.09 848 25.04 16.2 61.2 64 9.5 49.2
09:10 1019 30.09 848 25.04 16.4 61.5 63 9.5 49.1
09:15 1019 30.09 848 25.04 16.4 61.6 60 8.7 47.6
09:20 1019 30.09 848 25.04 16.6 61.9 58 8.5 47.3
09:25 1019 30.09 848 25.04 16.7 62 59 8.8 47.8
09:30 1019 30.09 848 25.04 16.5 61.7 59 8.6 47.4
09:35 1019 30.09 848 25.04 16.3 61.3 59 8.4 47.1
09:40 1019 30.09 848 25.04 16.5 61.6 58 8.3 46.9
09:45 1019 30.09 848 25.04 16.6 61.8 59 8.6 47.4
09:50 1019 30.09 848 25.04 16.6 61.8 58 8.3 47
09:55 1019 30.09 848 25.04 17 62.6 58 8.8 47.9
10:00 1019 30.09 848 25.04 16.8 62.3 58 8.7 47.6
10:05 1019 30.09 848 25.04 17 62.6 57 8.5 47.2
10:10 1019 30.09 848 25.04 16.7 62 58 8.6 47.5
10:15 1018 30.06 848 25.04 16.8 62.2 58 8.6 47.5
10:20 1018 30.06 848 25.04 17.2 63 57 8.7 47.7
10:25 1018 30.06 847 25.01 17.6 63.7 54 8.2 46.7
10:30 1018 30.06 847 25.01 17.7 63.8 54 8.4 47.1
10:35 1018 30.06 847 25.01 17.8 64 55 8.7 47.6
10:40 1018 30.06 847 25.01 18.3 64.9 52 8.4 47.2
10:45 1018 30.06 847 25.01 18.4 65.1 52 8.4 47.1
10:50 1018 30.06 847 25.01 18.7 65.7 54 9.2 48.6
10:55 1018 30.06 847 25.01 18.6 65.5 57 10 49.9
11:00 1018 30.06 847 25.01 18.4 65.2 58 10.2 50.3
11:05 1018 30.06 847 25.01 18.6 65.4 58 10.2 50.4
11:10 1018 30.06 847 25.01 18.6 65.5 57 10 49.9
11:15 1018 30.06 847 25.01 18.8 65.9 52 8.9 47.9
11:20 1018 30.06 847 25.01 19.2 66.6 54 9.7 49.5
11:25 1018 30.06 847 25.01 19.6 67.3 50 9.2 48.5
11:30 1018 30.06 847 25.01 19.8 67.7 54 10.4 50.7
11:35 1018 30.06 847 25.01 19.3 66.8 54 9.9 49.9
11:40 1018 30.06 847 25.01 19.1 66.3 55 10 50
11:45 1018 30.06 847 25.01 19.5 67.1 52 9.4 49
11:50 1018 30.06 847 25.01 20.3 68.5 50 9.8 49.6
11:55 1018 30.06 847 25.01 20.1 68.2 50 9.5 49.1
12:00 1018 30.06 847 25.01 21.2 70.1 50 10.6 51.1
12:05 1018 30.06 847 25.01 20.4 68.8 49 9.4 48.9
12:10 1018 30.06 847 25.01 20.8 69.4 49 9.7 49.5
12:15 1018 30.06 847 25.01 21.6 70.8 46 9.7 49.5
12:20 1017 30.03 847 25.01 21.6 70.8 49 10.6 51.1
12:25 1017 30.03 847 25.01 21 69.7 49 10.1 50.2
12:30 1017 30.03 847 25.01 21.1 70 47 9.6 49.3
12:35 1017 30.03 847 25.01 21.3 70.3 49 10.3 50.5
12:40 1017 30.03 847 25.01 20.6 69.1 50 9.8 49.7
12:45 1017 30.03 846 24.98 20.9 69.5 50 10.2 50.4
12:50 1017 30.03 846 24.98 20 68.1 51 9.6 49.3
12:55 1017 30.03 846 24.98 20.7 69.2 48 9.4 49
13:00 1017 30.03 846 24.98 21.2 70.1 48 10 49.9
13:05 1017 30.03 846 24.98 20.9 69.6 50 10.2 50.4
13:10 1017 30.03 846 24.98 21.5 70.6 48 10.1 50.2
13:15 1017 30.03 846 24.98 21.5 70.8 47 9.8 49.6
13:20 1017 30.03 846 24.98 22.2 72 44 9.4 48.9
13:25 1017 30.03 846 24.98 21.5 70.6 48 10.1 50.2
13:30 1017 30.03 846 24.98 22.3 72.1 44 9.8 49.6
13:35 1017 30.03 846 24.98 22.6 72.7 44 9.8 49.7
13:40 1017 30.03 846 24.98 22.5 72.5 46 10.6 51.1
13:45 1017 30.03 846 24.98 22 71.7 44 9.3 48.8
13:50 1017 30.03 846 24.98 22.9 73.2 42 9.4 49
13:55 1017 30.03 846 24.98 23 73.4 44 10.2 50.3
14:00 1017 30.03 846 24.98 22.3 72.1 46 10.2 50.3
14:05 1017 30.03 846 24.98 22.5 72.6 46 10.5 50.9
14:10 1017 30.03 846 24.98 22.3 72.1 45 10 50
14:15 1017 30.03 846 24.98 21.5 70.7 47 10 50
14:20 1017 30.03 846 24.98 22.1 71.8 44 9.4 48.9
14:25 1017 30.03 846 24.98 22.8 73.1 43 9.8 49.7
14:30 1016 30 846 24.98 23.5 74.3 40 9.4 48.9
14:35 1016 30 846 24.98 24.2 75.6 40 9.9 49.8
14:40 1016 30 846 24.98 23.7 74.6 43 10.5 50.9
14:45 1016 30 846 24.98 23.2 73.8 40 9.2 48.6
14:50 1016 30 845 24.95 23.5 74.4 42 10 50
14:55 1016 30 845 24.95 23.7 74.6 40 9.6 49.3
15:00 1016 30 845 24.95 23.4 74.2 42 10 50
15:05 1016 30 845 24.95 23.9 75 40 9.8 49.6
15:10 1016 30 845 24.95 23.6 74.5 40 9.6 49.3
15:15 1016 30 845 24.95 24 75.1 41 10 49.9
15:20 1016 30 845 24.95 24 75.2 42 10.5 51
15:25 1016 30 845 24.95 23.9 74.9 41 9.9 49.8
15:30 1016 30 845 24.95 23.7 74.6 42 10.1 50.2
15:35 1016 30 845 24.95 23.8 74.8 41 9.8 49.7
15:40 1016 30 845 24.95 24.4 75.9 39 9.8 49.6
15:45 1016 30 845 24.95 24.2 75.5 39 9.7 49.4
15:50 1016 30 845 24.95 24.7 76.5 39 10 50.1
15:55 1016 30 845 24.95 24.7 76.5 39 10 50
16:00 1016 30 845 24.95 23.7 74.6 41 10 50
16:05 1016 30 845 24.95 24 75.3 40 9.7 49.4
16:10 1016 30 845 24.95 24.9 76.7 39 10.1 50.1
16:15 1015 29.97 845 24.95 24.8 76.7 40 10.6 51.1
16:20 1015 29.97 845 24.95 24.4 75.9 40 10.1 50.2
16:25 1015 29.97 845 24.95 24.7 76.4 40 10.3 50.5
16:30 1015 29.97 845 24.95 24 75.2 41 10.2 50.3
16:35 1015 29.97 845 24.95 24.7 76.4 40 10.5 50.8
16:40 1015 29.97 844 24.92 24.4 76 39 9.9 49.9
16:45 1015 29.97 844 24.92 24.8 76.6 38 9.6 49.2
16:50 1015 29.97 844 24.92 23.9 75 40 9.7 49.5
16:55 1015 29.97 844 24.92 24.2 75.6 38 9 48.3
17:00 1015 29.97 844 24.92 24.9 76.9 37 9.7 49.4
17:05 1015 29.97 844 24.92 24.7 76.5 39 10.2 50.3
17:10 1015 29.97 844 24.92 23.6 74.6 37 8.3 46.9
17:15 1015 29.97 844 24.92 24.7 76.5 33 7.7 45.9
17:20 1015 29.97 844 24.92 24.8 76.6 37 9.1 48.5
17:25 1015 29.97 844 24.92 24.2 75.6 38 9.1 48.4
17:30 1015 29.97 844 24.92 24.3 75.7 37 9 48.2
17:35 1015 29.97 844 24.92 24.4 75.9 36 8.5 47.3
17:40 1015 29.97 844 24.92 25 77 34 8.4 47.1
17:45 1015 29.97 844 24.92 25 77 34 8.3 46.9
17:50 1015 29.97 844 24.92 24.9 76.7 33 7.8 46.1
17:55 1015 29.97 844 24.92 24.6 76.2 33 7.5 45.6
18:00 1015 29.97 844 24.92 24.7 76.4 33 7.5 45.6
18:05 1015 29.97 844 24.92 24.6 76.2 33 7.5 45.6
18:10 1015 29.97 844 24.92 24.8 76.6 33 7.5 45.5
18:15 1015 29.97 844 24.92 24.3 75.8 32 6.8 44.3
18:20 1015 29.97 844 24.92 24.4 75.9 31 6.5 43.7
18:25 1015 29.97 844 24.92 24.2 75.5 33 6.9 44.5
18:30 1015 29.97 844 24.92 24.3 75.7 32 6.5 43.8
18:35 1015 29.97 844 24.92 24.5 76.2 31 6.5 43.7
18:40 1014 29.94 844 24.92 24.7 76.5 31 6.9 44.4
18:45 1014 29.94 844 24.92 24.7 76.5 32 7.1 44.7
18:50 1014 29.94 844 24.92 24.8 76.6 31 6.7 44
18:55 1014 29.94 844 24.92 24.7 76.5 29 6 42.7
19:00 1015 29.97 844 24.92 24.7 76.4 31 6.5 43.7
19:05 1015 29.97 844 24.92 24.7 76.5 31 6.8 44.3
19:10 1015 29.97 844 24.92 24.5 76.1 37 9.3 48.7
19:15 1015 29.97 844 24.92 23.7 74.7 43 10.5 50.9
19:20 1015 29.97 844 24.92 23.2 73.8 44 10.6 51
19:25 1015 29.97 844 24.92 22.8 73 45 10.4 50.7
19:30 1015 29.97 844 24.92 22.2 71.9 46 10.1 50.1
19:35 1015 29.97 844 24.92 21.9 71.5 47 10.1 50.2
19:40 1015 29.97 844 24.92 21.7 71.1 48 10.3 50.5
19:45 1015 29.97 844 24.92 21.6 70.8 48 10.4 50.7
19:50 1015 29.97 844 24.92 21.4 70.5 50 10.6 51.1
19:55 1015 29.97 844 24.92 21.1 70 51 10.8 51.4
20:00 1015 29.97 844 24.92 20.9 69.7 52 10.8 51.5
20:05 1015 29.97 844 24.92 20.7 69.3 53 11 51.7
20:10 1015 29.97 844 24.92 20.5 68.9 54 11 51.8
20:15 1015 29.97 844 24.92 20.5 68.8 54 11 51.8
20:20 1015 29.97 844 24.92 20.4 68.7 55 11.2 52.2
20:25 1015 29.97 844 24.92 20.3 68.5 56 11.4 52.5
20:30 1015 29.97 844 24.92 20.1 68.3 57 11.4 52.4
20:35 1015 29.97 844 24.92 20.1 68.1 57 11.4 52.5
20:40 1015 29.97 844 24.92 20 68 57 11.4 52.6
20:45 1015 29.97 844 24.92 19.9 67.8 58 11.5 52.7
20:50 1015 29.97 844 24.92 19.8 67.6 59 11.6 52.9
20:55 1015 29.97 844 24.92 19.6 67.2 60 11.7 53.1
21:00 1015 29.97 844 24.92 19.4 66.8 61 11.8 53.2
21:05 1015 29.97 844 24.92 19.2 66.6 62 11.9 53.3
21:10 1015 29.97 844 24.92 19.2 66.5 62 12 53.5
21:15 1015 29.97 844 24.92 19.1 66.4 63 11.9 53.5
21:20 1015 29.97 844 24.92 19.1 66.4 63 12 53.6
21:25 1015 29.97 844 24.92 19 66.1 63 11.9 53.4
21:30 1015 29.97 844 24.92 19 66.1 63 11.8 53.3
21:35 1015 29.97 844 24.92 18.9 66.1 63 11.7 53.1
21:40 1015 29.97 844 24.92 18.9 66.1 63 11.7 53.1
21:45 1015 29.97 844 24.92 19 66.1 62 11.7 53
21:50 1015 29.97 844 24.92 19 66.1 62 11.6 52.9
21:55 1015 29.97 844 24.92 19.1 66.3 62 11.8 53.2
22:00 1015 29.97 844 24.92 18.9 66.1 63 11.8 53.2
22:05 1015 29.97 844 24.92 18.9 65.9 63 11.9 53.4
22:10 1015 29.97 844 24.92 18.7 65.6 64 11.9 53.5
22:15 1015 29.97 844 24.92 18.5 65.2 65 11.9 53.4
22:20 1015 29.97 844 24.92 18.3 65 66 11.8 53.3
22:25 1015 29.97 844 24.92 18.2 64.8 66 11.8 53.2
22:30 1015 29.97 844 24.92 18.2 64.8 66 11.8 53.3
22:35 1015 29.97 844 24.92 18.2 64.8 66 11.8 53.3
22:40 1015 29.97 844 24.92 18.1 64.6 66 11.7 53.1
22:45 1015 29.97 844 24.92 18.1 64.6 65 11.5 52.7
22:50 1015 29.97 844 24.92 18.2 64.8 65 11.5 52.8
22:55 1015 29.97 844 24.92 18.3 64.9 64 11.6 52.8
23:00 1015 29.97 844 24.92 18.2 64.8 65 11.6 52.9
23:05 1015 29.97 844 24.92 18.1 64.6 66 11.6 52.9
23:10 1015 29.97 844 24.92 17.9 64.2 67 11.7 53.1
23:15 1015 29.97 844 24.92 17.6 63.7 68 11.7 53.1
23:20 1015 29.97 844 24.92 17.3 63.2 69 11.7 53
23:25 1015 29.97 844 24.92 17.2 62.9 69 11.5 52.7
23:30 1015 29.97 844 24.92 17.1 62.7 70 11.5 52.8
23:35 1015 29.97 844 24.92 17.1 62.8 69 11.5 52.7
23:40 1015 29.97 844 24.92 17.1 62.8 70 11.6 52.9
23:45 1015 29.97 845 24.95 17 62.6 70 11.6 52.8
23:50 1015 29.97 845 24.95 17 62.6 70 11.6 52.8
23:55 1015 29.97 845 24.95 16.8 62.3 71 11.7 53
24:00 1015 29.97 845 24.95 16.7 62 72 11.6 52.8